sensor_id;sensor_type;location;lat;lon;timestamp;pressure;altitude;pressure_sealevel;temperature;humidity
61676;BME280;47574;52.090;5.244;2023-05-08T00:02:07;102065.0;;;19.61;61.09
61676;BME280;47574;52.090;5.244;2023-05-08T00:03:44;102065.0;;;19.7;60.82
61676;BME280;47574;52.090;5.244;2023-05-08T00:05:20;102065.0;;;19.66;60.62
61676;BME280;47574;52.090;5.244;2023-05-08T00:06:56;102057.0;;;19.86;59.94
61676;BME280;47574;52.090;5.244;2023-05-08T00:10:10;102060.0;;;19.91;59.77
61676;BME280;47574;52.090;5.244;2023-05-08T00:11:47;102063.0;;;19.61;60.23
61676;BME280;47574;52.090;5.244;2023-05-08T00:13:24;102061.0;;;19.37;61.06
61676;BME280;47574;52.090;5.244;2023-05-08T00:16:37;102056.0;;;19.57;60.48
61676;BME280;47574;52.090;5.244;2023-05-08T00:18:13;102048.0;;;19.75;59.94
61676;BME280;47574;52.090;5.244;2023-05-08T00:19:50;102052.0;;;19.54;60.3
61676;BME280;47574;52.090;5.244;2023-05-08T00:23:04;102050.0;;;19.47;60.45
61676;BME280;47574;52.090;5.244;2023-05-08T00:24:40;102046.0;;;19.43;60.37
61676;BME280;47574;52.090;5.244;2023-05-08T00:26:17;102038.0;;;19.72;59.67
61676;BME280;47574;52.090;5.244;2023-05-08T00:27:53;102044.0;;;19.5;60.46
61676;BME280;47574;52.090;5.244;2023-05-08T00:31:05;102047.0;;;19.47;60.42
61676;BME280;47574;52.090;5.244;2023-05-08T00:32:41;102051.0;;;19.43;60.52
61676;BME280;47574;52.090;5.244;2023-05-08T00:34:17;102051.0;;;19.54;60.28
61676;BME280;47574;52.090;5.244;2023-05-08T00:37:34;102044.0;;;19.36;60.52
61676;BME280;47574;52.090;5.244;2023-05-08T00:39:11;102048.0;;;19.36;60.72
61676;BME280;47574;52.090;5.244;2023-05-08T00:40:48;102045.0;;;19.5;60.56
61676;BME280;47574;52.090;5.244;2023-05-08T00:44:00;102055.0;;;19.5;60.53
61676;BME280;47574;52.090;5.244;2023-05-08T00:45:38;102053.0;;;19.5;60.52
61676;BME280;47574;52.090;5.244;2023-05-08T00:47:15;102049.0;;;19.57;60.07
61676;BME280;47574;52.090;5.244;2023-05-08T00:48:52;102049.0;;;19.27;60.74
61676;BME280;47574;52.090;5.244;2023-05-08T00:52:05;102045.0;;;19.36;60.61
61676;BME280;47574;52.090;5.244;2023-05-08T00:53:43;102045.0;;;19.3;60.75
61676;BME280;47574;52.090;5.244;2023-05-08T00:55:20;102044.0;;;19.2;60.75
61676;BME280;47574;52.090;5.244;2023-05-08T00:58:35;102041.0;;;19.29;60.31
61676;BME280;47574;52.090;5.244;2023-05-08T01:00:15;102042.0;;;19.21;60.5
61676;BME280;47574;52.090;5.244;2023-05-08T01:01:52;102045.0;;;19.41;60.12
61676;BME280;47574;52.090;5.244;2023-05-08T01:03:31;102045.0;;;19.29;60.2
61676;BME280;47574;52.090;5.244;2023-05-08T01:06:45;102044.0;;;19.11;60.37
61676;BME280;47574;52.090;5.244;2023-05-08T01:08:21;102041.0;;;19.07;60.57
61676;BME280;47574;52.090;5.244;2023-05-08T01:09:57;102041.0;;;19.11;60.62
61676;BME280;47574;52.090;5.244;2023-05-08T01:13:37;102043.0;;;19.28;59.72
61676;BME280;47574;52.090;5.244;2023-05-08T01:15:23;102044.0;;;19.14;60.21
61676;BME280;47574;52.090;5.244;2023-05-08T01:17:13;102048.0;;;19.0;60.28
61676;BME280;47574;52.090;5.244;2023-05-08T01:18:59;102047.0;;;19.22;59.78
61676;BME280;47574;52.090;5.244;2023-05-08T01:20:53;102046.0;;;19.06;60.22
61676;BME280;47574;52.090;5.244;2023-05-08T01:22:53;102041.0;;;19.12;59.85
61676;BME280;47574;52.090;5.244;2023-05-08T01:26:11;102042.0;;;18.84;60.84
61676;BME280;47574;52.090;5.244;2023-05-08T01:32:06;102047.0;;;18.75;60.48
61676;BME280;47574;52.090;5.244;2023-05-08T01:33:50;102055.0;;;18.93;60.41
61676;BME280;47574;52.090;5.244;2023-05-08T01:35:36;102053.0;;;19.18;59.5
61676;BME280;47574;52.090;5.244;2023-05-08T01:37:26;102056.0;;;19.05;59.92
61676;BME280;47574;52.090;5.244;2023-05-08T01:39:16;102055.0;;;19.18;59.62
61676;BME280;47574;52.090;5.244;2023-05-08T01:42:45;102056.0;;;19.0;59.9
61676;BME280;47574;52.090;5.244;2023-05-08T01:44:42;102058.0;;;18.86;60.13
61676;BME280;47574;52.090;5.244;2023-05-08T01:46:26;102059.0;;;19.04;59.69
61676;BME280;47574;52.090;5.244;2023-05-08T01:48:04;102057.0;;;19.06;60.02
61676;BME280;47574;52.090;5.244;2023-05-08T01:49:45;102059.0;;;18.73;60.78
61676;BME280;47574;52.090;5.244;2023-05-08T01:53:08;102060.0;;;18.81;60.77
61676;BME280;47574;52.090;5.244;2023-05-08T01:54:49;102061.0;;;18.77;60.55
61676;BME280;47574;52.090;5.244;2023-05-08T01:56:47;102059.0;;;18.72;60.84
61676;BME280;47574;52.090;5.244;2023-05-08T01:58:25;102055.0;;;18.75;60.54
61676;BME280;47574;52.090;5.244;2023-05-08T02:00:03;102058.0;;;18.84;60.76
61676;BME280;47574;52.090;5.244;2023-05-08T02:03:22;102056.0;;;18.82;60.53
61676;BME280;47574;52.090;5.244;2023-05-08T02:05:01;102058.0;;;18.66;60.96
61676;BME280;47574;52.090;5.244;2023-05-08T02:06:40;102057.0;;;18.55;60.94
61676;BME280;47574;52.090;5.244;2023-05-08T02:11:35;102066.0;;;18.88;59.94
61676;BME280;47574;52.090;5.244;2023-05-08T02:13:12;102064.0;;;18.48;60.6
61676;BME280;47574;52.090;5.244;2023-05-08T02:14:51;102068.0;;;18.41;60.77
61676;BME280;47574;52.090;5.244;2023-05-08T02:18:07;102069.0;;;18.5;60.68
61676;BME280;47574;52.090;5.244;2023-05-08T02:19:45;102072.0;;;18.78;59.94
61676;BME280;47574;52.090;5.244;2023-05-08T02:21:22;102077.0;;;18.64;60.32
61676;BME280;47574;52.090;5.244;2023-05-08T02:23:01;102078.0;;;18.73;59.8
61676;BME280;47574;52.090;5.244;2023-05-08T02:26:16;102072.0;;;18.68;60.07
61676;BME280;47574;52.090;5.244;2023-05-08T02:27:54;102077.0;;;18.66;60.05
61676;BME280;47574;52.090;5.244;2023-05-08T02:29:31;102077.0;;;18.62;60.14
61676;BME280;47574;52.090;5.244;2023-05-08T02:32:48;102080.0;;;18.43;60.69
61676;BME280;47574;52.090;5.244;2023-05-08T02:34:26;102078.0;;;18.41;61.03
61676;BME280;47574;52.090;5.244;2023-05-08T02:36:04;102074.0;;;18.34;60.83
61676;BME280;47574;52.090;5.244;2023-05-08T02:37:43;102076.0;;;18.34;60.98
61676;BME280;47574;52.090;5.244;2023-05-08T02:41:06;102073.0;;;18.27;61.14
61676;BME280;47574;52.090;5.244;2023-05-08T02:42:44;102070.0;;;18.21;60.83
61676;BME280;47574;52.090;5.244;2023-05-08T02:44:21;102077.0;;;18.18;61.21
61676;BME280;47574;52.090;5.244;2023-05-08T02:46:07;102075.0;;;18.13;61.17
61676;BME280;47574;52.090;5.244;2023-05-08T02:49:39;102073.0;;;18.09;61.26
61676;BME280;47574;52.090;5.244;2023-05-08T02:51:24;102070.0;;;18.27;60.89
61676;BME280;47574;52.090;5.244;2023-05-08T02:53:07;102068.0;;;18.27;60.97
61676;BME280;47574;52.090;5.244;2023-05-08T02:54:55;102070.0;;;18.25;60.6
61676;BME280;47574;52.090;5.244;2023-05-08T02:56:37;102066.0;;;18.25;60.81
61676;BME280;47574;52.090;5.244;2023-05-08T03:00:04;102063.0;;;18.62;60.05
61676;BME280;47574;52.090;5.244;2023-05-08T03:01:46;102059.0;;;18.25;60.56
61676;BME280;47574;52.090;5.244;2023-05-08T03:03:25;102055.0;;;18.13;60.41
61676;BME280;47574;52.090;5.244;2023-05-08T03:05:13;102055.0;;;18.23;60.19
61676;BME280;47574;52.090;5.244;2023-05-08T03:06:53;102052.0;;;18.11;60.4
61676;BME280;47574;52.090;5.244;2023-05-08T03:10:13;102052.0;;;18.11;60.66
61676;BME280;47574;52.090;5.244;2023-05-08T03:11:52;102055.0;;;18.12;60.43
61676;BME280;47574;52.090;5.244;2023-05-08T03:13:37;102052.0;;;18.02;60.89
61676;BME280;47574;52.090;5.244;2023-05-08T03:15:19;102051.0;;;18.16;60.5
61676;BME280;47574;52.090;5.244;2023-05-08T03:18:48;102050.0;;;18.52;59.61
61676;BME280;47574;52.090;5.244;2023-05-08T03:20:31;102055.0;;;18.25;60.11
61676;BME280;47574;52.090;5.244;2023-05-08T03:22:10;102055.0;;;18.05;60.23
61676;BME280;47574;52.090;5.244;2023-05-08T03:23:50;102057.0;;;18.09;60.27
61676;BME280;47574;52.090;5.244;2023-05-08T03:27:06;102055.0;;;18.0;60.34
61676;BME280;47574;52.090;5.244;2023-05-08T03:28:45;102052.0;;;18.2;60.26
61676;BME280;47574;52.090;5.244;2023-05-08T03:30:24;102051.0;;;18.07;60.45
61676;BME280;47574;52.090;5.244;2023-05-08T03:32:01;102053.0;;;18.43;59.61
61676;BME280;47574;52.090;5.244;2023-05-08T03:35:18;102055.0;;;18.32;59.76
61676;BME280;47574;52.090;5.244;2023-05-08T03:36:56;102060.0;;;18.37;59.75
61676;BME280;47574;52.090;5.244;2023-05-08T03:38:33;102060.0;;;18.45;59.46
61676;BME280;47574;52.090;5.244;2023-05-08T03:41:48;102056.0;;;18.14;60.01
61676;BME280;47574;52.090;5.244;2023-05-08T03:43:25;102055.0;;;18.25;59.73
61676;BME280;47574;52.090;5.244;2023-05-08T03:45:03;102055.0;;;18.16;60.03
61676;BME280;47574;52.090;5.244;2023-05-08T03:46:41;102052.0;;;17.96;60.91
61676;BME280;47574;52.090;5.244;2023-05-08T03:50:01;102049.0;;;18.03;60.94
61676;BME280;47574;52.090;5.244;2023-05-08T03:51:38;102048.0;;;17.82;61.57
61676;BME280;47574;52.090;5.244;2023-05-08T03:53:15;102044.0;;;17.7;62.45
61676;BME280;47574;52.090;5.244;2023-05-08T03:56:29;102045.0;;;17.64;62.84
61676;BME280;47574;52.090;5.244;2023-05-08T03:58:12;102046.0;;;17.77;62.51
61676;BME280;47574;52.090;5.244;2023-05-08T04:00:05;102045.0;;;17.84;62.38
61676;BME280;47574;52.090;5.244;2023-05-08T04:01:49;102048.0;;;17.91;62.21
61676;BME280;47574;52.090;5.244;2023-05-08T04:03:39;102048.0;;;17.79;62.36
61676;BME280;47574;52.090;5.244;2023-05-08T04:05:30;102051.0;;;18.07;61.6
61676;BME280;47574;52.090;5.244;2023-05-08T04:08:54;102051.0;;;18.2;61.19
61676;BME280;47574;52.090;5.244;2023-05-08T04:10:41;102047.0;;;18.13;61.38
61676;BME280;47574;52.090;5.244;2023-05-08T04:12:35;102043.0;;;18.09;61.01
61676;BME280;47574;52.090;5.244;2023-05-08T04:14:18;102043.0;;;17.91;61.59
61676;BME280;47574;52.090;5.244;2023-05-08T04:16:00;102048.0;;;17.91;61.73
61676;BME280;47574;52.090;5.244;2023-05-08T04:19:24;102050.0;;;18.16;61.05
61676;BME280;47574;52.090;5.244;2023-05-08T04:21:07;102055.0;;;18.07;61.33
61676;BME280;47574;52.090;5.244;2023-05-08T04:22:46;102058.0;;;18.16;61.02
61676;BME280;47574;52.090;5.244;2023-05-08T04:24:26;102056.0;;;17.89;61.54
61676;BME280;47574;52.090;5.244;2023-05-08T04:27:42;102056.0;;;17.79;62.12
61676;BME280;47574;52.090;5.244;2023-05-08T04:29:19;102055.0;;;17.77;61.76
61676;BME280;47574;52.090;5.244;2023-05-08T04:30:56;102057.0;;;17.73;62.11
61676;BME280;47574;52.090;5.244;2023-05-08T04:32:34;102062.0;;;17.68;62.21
61676;BME280;47574;52.090;5.244;2023-05-08T04:35:49;102060.0;;;17.56;62.66
61676;BME280;47574;52.090;5.244;2023-05-08T04:37:25;102061.0;;;17.52;62.56
61676;BME280;47574;52.090;5.244;2023-05-08T04:39:03;102063.0;;;17.56;62.12
61676;BME280;47574;52.090;5.244;2023-05-08T04:42:15;102061.0;;;17.84;61.13
61676;BME280;47574;52.090;5.244;2023-05-08T04:43:52;102064.0;;;18.02;60.43
61676;BME280;47574;52.090;5.244;2023-05-08T04:45:28;102068.0;;;18.11;60.46
61676;BME280;47574;52.090;5.244;2023-05-08T04:48:40;102072.0;;;18.11;59.88
61676;BME280;47574;52.090;5.244;2023-05-08T04:50:17;102070.0;;;17.96;60.25
61676;BME280;47574;52.090;5.244;2023-05-08T04:51:53;102072.0;;;18.07;60.13
61676;BME280;47574;52.090;5.244;2023-05-08T04:55:07;102082.0;;;18.11;60.12
61676;BME280;47574;52.090;5.244;2023-05-08T04:56:44;102078.0;;;17.95;60.72
61676;BME280;47574;52.090;5.244;2023-05-08T04:58:20;102081.0;;;18.04;60.36
61676;BME280;47574;52.090;5.244;2023-05-08T04:59:56;102083.0;;;17.91;60.71
61676;BME280;47574;52.090;5.244;2023-05-08T05:03:08;102088.0;;;17.84;61.11
61676;BME280;47574;52.090;5.244;2023-05-08T05:04:45;102089.0;;;17.91;61.4
61676;BME280;47574;52.090;5.244;2023-05-08T05:06:21;102095.0;;;18.0;61.2
61676;BME280;47574;52.090;5.244;2023-05-08T05:09:33;102099.0;;;18.14;61.0
61676;BME280;47574;52.090;5.244;2023-05-08T05:11:09;102096.0;;;18.16;61.1
61676;BME280;47574;52.090;5.244;2023-05-08T05:12:45;102098.0;;;18.11;61.44
61676;BME280;47574;52.090;5.244;2023-05-08T05:15:58;102098.0;;;18.28;61.41
61676;BME280;47574;52.090;5.244;2023-05-08T05:17:34;102100.0;;;18.23;61.46
61676;BME280;47574;52.090;5.244;2023-05-08T05:19:10;102101.0;;;18.43;61.11
61676;BME280;47574;52.090;5.244;2023-05-08T05:20:46;102099.0;;;18.25;61.84
61676;BME280;47574;52.090;5.244;2023-05-08T05:23:58;102102.0;;;18.32;61.75
61676;BME280;47574;52.090;5.244;2023-05-08T05:25:34;102100.0;;;18.52;61.3
61676;BME280;47574;52.090;5.244;2023-05-08T05:27:10;102105.0;;;18.53;61.42
61676;BME280;47574;52.090;5.244;2023-05-08T05:30:23;102105.0;;;18.53;61.47
61676;BME280;47574;52.090;5.244;2023-05-08T05:32:00;102110.0;;;18.61;61.42
61676;BME280;47574;52.090;5.244;2023-05-08T05:33:36;102111.0;;;18.59;61.79
61676;BME280;47574;52.090;5.244;2023-05-08T05:36:50;102112.0;;;18.68;61.55
61676;BME280;47574;52.090;5.244;2023-05-08T05:38:26;102115.0;;;18.8;61.32
61676;BME280;47574;52.090;5.244;2023-05-08T05:40:04;102114.0;;;18.82;61.14
61676;BME280;47574;52.090;5.244;2023-05-08T05:41:40;102116.0;;;18.64;62.12
61676;BME280;47574;52.090;5.244;2023-05-08T05:44:51;102120.0;;;18.77;61.75
61676;BME280;47574;52.090;5.244;2023-05-08T05:46:27;102118.0;;;18.86;61.56
61676;BME280;47574;52.090;5.244;2023-05-08T05:48:04;102124.0;;;19.02;61.6
61676;BME280;47574;52.090;5.244;2023-05-08T05:51:16;102123.0;;;19.09;60.71
61676;BME280;47574;52.090;5.244;2023-05-08T05:52:52;102119.0;;;18.89;61.59
61676;BME280;47574;52.090;5.244;2023-05-08T05:54:28;102121.0;;;18.57;61.96
61676;BME280;47574;52.090;5.244;2023-05-08T05:57:41;102120.0;;;18.77;61.91
61676;BME280;47574;52.090;5.244;2023-05-08T05:59:17;102121.0;;;18.75;61.76
61676;BME280;47574;52.090;5.244;2023-05-08T06:00:54;102122.0;;;19.0;61.53
61676;BME280;47574;52.090;5.244;2023-05-08T06:04:06;102123.0;;;19.16;60.94
61676;BME280;47574;52.090;5.244;2023-05-08T06:05:42;102127.0;;;18.88;61.9
61676;BME280;47574;52.090;5.244;2023-05-08T06:07:18;102126.0;;;18.95;61.68
61676;BME280;47574;52.090;5.244;2023-05-08T06:08:54;102130.0;;;19.02;61.74
61676;BME280;47574;52.090;5.244;2023-05-08T06:12:06;102133.0;;;19.18;61.26
61676;BME280;47574;52.090;5.244;2023-05-08T06:13:43;102131.0;;;19.2;61.42
61676;BME280;47574;52.090;5.244;2023-05-08T06:15:19;102132.0;;;19.34;61.21
61676;BME280;47574;52.090;5.244;2023-05-08T06:18:33;102137.0;;;19.25;61.36
61676;BME280;47574;52.090;5.244;2023-05-08T06:20:10;102137.0;;;19.43;61.27
61676;BME280;47574;52.090;5.244;2023-05-08T06:21:45;102136.0;;;19.36;61.56
61676;BME280;47574;52.090;5.244;2023-05-08T06:24:58;102133.0;;;19.2;62.05
61676;BME280;47574;52.090;5.244;2023-05-08T06:26:34;102132.0;;;18.96;63.03
61676;BME280;47574;52.090;5.244;2023-05-08T06:28:10;102135.0;;;19.12;62.82
61676;BME280;47574;52.090;5.244;2023-05-08T06:29:46;102139.0;;;19.41;62.14
61676;BME280;47574;52.090;5.244;2023-05-08T06:32:58;102140.0;;;19.14;62.88
61676;BME280;47574;52.090;5.244;2023-05-08T06:34:34;102139.0;;;19.21;62.81
61676;BME280;47574;52.090;5.244;2023-05-08T06:36:11;102140.0;;;19.52;62.52
61676;BME280;47574;52.090;5.244;2023-05-08T06:39:24;102142.0;;;19.54;63.02
61676;BME280;47574;52.090;5.244;2023-05-08T06:41:00;102137.0;;;19.66;62.63
61676;BME280;47574;52.090;5.244;2023-05-08T06:42:36;102138.0;;;19.7;62.46
61676;BME280;47574;52.090;5.244;2023-05-08T06:45:48;102137.0;;;19.77;62.53
61676;BME280;47574;52.090;5.244;2023-05-08T06:47:24;102139.0;;;19.75;62.6
61676;BME280;47574;52.090;5.244;2023-05-08T06:49:01;102142.0;;;19.56;63.12
61676;BME280;47574;52.090;5.244;2023-05-08T06:52:14;102144.0;;;19.54;63.28
61676;BME280;47574;52.090;5.244;2023-05-08T06:53:50;102146.0;;;19.64;63.29
61676;BME280;47574;52.090;5.244;2023-05-08T06:55:26;102145.0;;;19.71;63.13
61676;BME280;47574;52.090;5.244;2023-05-08T06:57:02;102140.0;;;19.97;62.71
61676;BME280;47574;52.090;5.244;2023-05-08T07:00:15;102138.0;;;20.09;62.5
61676;BME280;47574;52.090;5.244;2023-05-08T07:01:51;102140.0;;;20.06;62.32
61676;BME280;47574;52.090;5.244;2023-05-08T07:03:27;102134.0;;;20.16;62.45
61676;BME280;47574;52.090;5.244;2023-05-08T07:06:40;102140.0;;;20.06;62.97
61676;BME280;47574;52.090;5.244;2023-05-08T07:08:16;102140.0;;;20.11;62.91
61676;BME280;47574;52.090;5.244;2023-05-08T07:09:53;102135.0;;;20.18;62.51
61676;BME280;47574;52.090;5.244;2023-05-08T07:13:05;102136.0;;;19.95;63.34
61676;BME280;47574;52.090;5.244;2023-05-08T07:14:41;102137.0;;;19.88;63.37
61676;BME280;47574;52.090;5.244;2023-05-08T07:16:17;102128.0;;;20.11;62.77
61676;BME280;47574;52.090;5.244;2023-05-08T07:17:53;102127.0;;;20.16;62.93
61676;BME280;47574;52.090;5.244;2023-05-08T07:21:05;102132.0;;;20.16;63.11
61676;BME280;47574;52.090;5.244;2023-05-08T07:22:42;102130.0;;;20.14;63.09
61676;BME280;47574;52.090;5.244;2023-05-08T07:24:18;102135.0;;;20.11;63.59
61676;BME280;47574;52.090;5.244;2023-05-08T07:27:30;102130.0;;;20.36;62.93
61676;BME280;47574;52.090;5.244;2023-05-08T07:29:07;102131.0;;;20.59;62.83
61676;BME280;47574;52.090;5.244;2023-05-08T07:30:43;102130.0;;;20.64;62.31
61676;BME280;47574;52.090;5.244;2023-05-08T07:33:55;102128.0;;;20.21;63.25
61676;BME280;47574;52.090;5.244;2023-05-08T07:35:32;102135.0;;;20.16;63.28
61676;BME280;47574;52.090;5.244;2023-05-08T07:37:08;102131.0;;;20.43;62.31
61676;BME280;47574;52.090;5.244;2023-05-08T07:40:20;102132.0;;;20.41;62.51
61676;BME280;47574;52.090;5.244;2023-05-08T07:41:56;102139.0;;;20.59;62.28
61676;BME280;47574;52.090;5.244;2023-05-08T07:43:32;102130.0;;;20.31;62.98
61676;BME280;47574;52.090;5.244;2023-05-08T07:45:11;102139.0;;;20.18;63.15
61676;BME280;47574;52.090;5.244;2023-05-08T07:48:24;102134.0;;;20.75;61.87
61676;BME280;47574;52.090;5.244;2023-05-08T07:50:00;102133.0;;;20.63;61.7
61676;BME280;47574;52.090;5.244;2023-05-08T07:51:36;102131.0;;;20.76;61.62
61676;BME280;47574;52.090;5.244;2023-05-08T07:54:48;102134.0;;;20.73;62.08
61676;BME280;47574;52.090;5.244;2023-05-08T07:56:25;102135.0;;;20.67;61.95
61676;BME280;47574;52.090;5.244;2023-05-08T07:58:01;102137.0;;;20.55;62.63
61676;BME280;47574;52.090;5.244;2023-05-08T08:01:13;102135.0;;;20.77;61.84
61676;BME280;47574;52.090;5.244;2023-05-08T08:02:49;102135.0;;;20.92;61.45
61676;BME280;47574;52.090;5.244;2023-05-08T08:04:25;102134.0;;;21.06;61.22
61676;BME280;47574;52.090;5.244;2023-05-08T08:06:01;102130.0;;;20.85;61.74
61676;BME280;47574;52.090;5.244;2023-05-08T08:09:13;102131.0;;;20.93;61.83
61676;BME280;47574;52.090;5.244;2023-05-08T08:10:50;102131.0;;;21.07;61.62
61676;BME280;47574;52.090;5.244;2023-05-08T08:12:26;102132.0;;;21.12;61.15
61676;BME280;47574;52.090;5.244;2023-05-08T08:15:39;102134.0;;;21.1;61.24
61676;BME280;47574;52.090;5.244;2023-05-08T08:17:16;102130.0;;;21.05;61.36
61676;BME280;47574;52.090;5.244;2023-05-08T08:18:52;102130.0;;;21.12;61.05
61676;BME280;47574;52.090;5.244;2023-05-08T08:22:05;102133.0;;;21.08;61.28
61676;BME280;47574;52.090;5.244;2023-05-08T08:23:41;102127.0;;;20.87;61.43
61676;BME280;47574;52.090;5.244;2023-05-08T08:25:17;102128.0;;;20.87;61.47
61676;BME280;47574;52.090;5.244;2023-05-08T08:26:53;102126.0;;;20.72;61.95
61676;BME280;47574;52.090;5.244;2023-05-08T08:30:07;102124.0;;;21.0;60.95
61676;BME280;47574;52.090;5.244;2023-05-08T08:31:43;102128.0;;;21.04;60.89
61676;BME280;47574;52.090;5.244;2023-05-08T08:33:19;102124.0;;;21.24;60.37
61676;BME280;47574;52.090;5.244;2023-05-08T08:36:31;102124.0;;;21.27;60.12
61676;BME280;47574;52.090;5.244;2023-05-08T08:38:07;102125.0;;;21.37;59.53
61676;BME280;47574;52.090;5.244;2023-05-08T08:39:43;102119.0;;;21.34;60.19
61676;BME280;47574;52.090;5.244;2023-05-08T08:42:55;102121.0;;;21.3;59.99
61676;BME280;47574;52.090;5.244;2023-05-08T08:44:32;102122.0;;;21.61;59.77
61676;BME280;47574;52.090;5.244;2023-05-08T08:46:10;102127.0;;;21.96;59.18
61676;BME280;47574;52.090;5.244;2023-05-08T08:49:29;102127.0;;;21.82;59.37
61676;BME280;47574;52.090;5.244;2023-05-08T08:51:11;102131.0;;;21.73;59.0
61676;BME280;47574;52.090;5.244;2023-05-08T08:52:55;102130.0;;;21.69;58.98
61676;BME280;47574;52.090;5.244;2023-05-08T08:54:35;102130.0;;;21.76;59.29
61676;BME280;47574;52.090;5.244;2023-05-08T08:56:13;102132.0;;;21.74;59.35
61676;BME280;47574;52.090;5.244;2023-05-08T08:59:37;102130.0;;;21.81;59.11
61676;BME280;47574;52.090;5.244;2023-05-08T09:01:17;102132.0;;;21.63;58.88
61676;BME280;47574;52.090;5.244;2023-05-08T09:02:55;102133.0;;;21.82;58.61
61676;BME280;47574;52.090;5.244;2023-05-08T09:06:07;102132.0;;;22.06;58.11
61676;BME280;47574;52.090;5.244;2023-05-08T09:07:43;102130.0;;;22.15;57.98
61676;BME280;47574;52.090;5.244;2023-05-08T09:09:20;102131.0;;;22.04;58.81
61676;BME280;47574;52.090;5.244;2023-05-08T09:10:55;102131.0;;;21.69;58.15
61676;BME280;47574;52.090;5.244;2023-05-08T09:14:08;102127.0;;;22.14;57.23
61676;BME280;47574;52.090;5.244;2023-05-08T09:15:44;102124.0;;;21.99;57.83
61676;BME280;47574;52.090;5.244;2023-05-08T09:17:20;102124.0;;;22.06;58.0
61676;BME280;47574;52.090;5.244;2023-05-08T09:20:33;102121.0;;;22.09;57.7
61676;BME280;47574;52.090;5.244;2023-05-08T09:22:10;102124.0;;;22.29;57.33
61676;BME280;47574;52.090;5.244;2023-05-08T09:23:55;102128.0;;;22.54;56.96
61676;BME280;47574;52.090;5.244;2023-05-08T09:25:48;102130.0;;;22.46;56.98
61676;BME280;47574;52.090;5.244;2023-05-08T09:29:10;102130.0;;;22.43;57.21
61676;BME280;47574;52.090;5.244;2023-05-08T09:30:48;102132.0;;;21.75;58.79
61676;BME280;47574;52.090;5.244;2023-05-08T09:32:26;102136.0;;;22.03;58.25
61676;BME280;47574;52.090;5.244;2023-05-08T09:34:02;102131.0;;;22.42;58.05
61676;BME280;47574;52.090;5.244;2023-05-08T09:37:16;102130.0;;;21.86;58.89
61676;BME280;47574;52.090;5.244;2023-05-08T09:38:52;102131.0;;;22.08;58.17
61676;BME280;47574;52.090;5.244;2023-05-08T09:40:28;102130.0;;;22.07;58.51
61676;BME280;47574;52.090;5.244;2023-05-08T09:43:41;102126.0;;;22.32;57.88
61676;BME280;47574;52.090;5.244;2023-05-08T09:45:26;102126.0;;;22.18;58.15
61676;BME280;47574;52.090;5.244;2023-05-08T09:47:11;102128.0;;;22.09;58.47
61676;BME280;47574;52.090;5.244;2023-05-08T09:48:49;102131.0;;;22.04;58.26
61676;BME280;47574;52.090;5.244;2023-05-08T09:52:03;102127.0;;;22.32;57.81
61676;BME280;47574;52.090;5.244;2023-05-08T09:53:40;102130.0;;;22.02;58.15
61676;BME280;47574;52.090;5.244;2023-05-08T09:55:16;102127.0;;;22.15;58.11
61676;BME280;47574;52.090;5.244;2023-05-08T09:56:53;102130.0;;;21.69;59.04
61676;BME280;47574;52.090;5.244;2023-05-08T10:00:13;102133.0;;;22.16;58.17
61676;BME280;47574;52.090;5.244;2023-05-08T10:01:50;102132.0;;;21.96;57.96
61676;BME280;47574;52.090;5.244;2023-05-08T10:03:44;102136.0;;;21.89;58.08
61676;BME280;47574;52.090;5.244;2023-05-08T10:05:22;102134.0;;;21.87;57.87
61676;BME280;47574;52.090;5.244;2023-05-08T10:08:37;102131.0;;;22.3;57.15
61676;BME280;47574;52.090;5.244;2023-05-08T10:10:14;102137.0;;;22.06;57.64
61676;BME280;47574;52.090;5.244;2023-05-08T10:11:56;102140.0;;;22.0;57.86
61676;BME280;47574;52.090;5.244;2023-05-08T10:15:09;102133.0;;;22.14;57.31
61676;BME280;47574;52.090;5.244;2023-05-08T10:16:46;102137.0;;;22.08;57.62
61676;BME280;47574;52.090;5.244;2023-05-08T10:18:25;102133.0;;;22.18;56.99
61676;BME280;47574;52.090;5.244;2023-05-08T10:20:07;102138.0;;;22.22;57.41
61676;BME280;47574;52.090;5.244;2023-05-08T10:23:22;102137.0;;;22.4;56.45
61676;BME280;47574;52.090;5.244;2023-05-08T10:25:01;102135.0;;;22.17;57.51
61676;BME280;47574;52.090;5.244;2023-05-08T10:26:41;102138.0;;;22.21;56.43
61676;BME280;47574;52.090;5.244;2023-05-08T10:28:23;102137.0;;;22.37;56.08
61676;BME280;47574;52.090;5.244;2023-05-08T10:31:45;102136.0;;;22.65;55.9
61676;BME280;47574;52.090;5.244;2023-05-08T10:33:29;102135.0;;;22.69;55.68
61676;BME280;47574;52.090;5.244;2023-05-08T10:35:09;102133.0;;;22.91;56.01
61676;BME280;47574;52.090;5.244;2023-05-08T10:36:46;102137.0;;;23.07;55.49
61676;BME280;47574;52.090;5.244;2023-05-08T10:40:02;102134.0;;;22.85;55.54
61676;BME280;47574;52.090;5.244;2023-05-08T10:41:39;102135.0;;;22.59;55.95
61676;BME280;47574;52.090;5.244;2023-05-08T10:43:16;102135.0;;;22.57;56.04
61676;BME280;47574;52.090;5.244;2023-05-08T10:46:37;102135.0;;;22.81;55.29
61676;BME280;47574;52.090;5.244;2023-05-08T10:48:22;102136.0;;;22.98;55.38
61676;BME280;47574;52.090;5.244;2023-05-08T10:50:11;102134.0;;;22.75;55.91
61676;BME280;47574;52.090;5.244;2023-05-08T10:52:00;102132.0;;;23.11;55.35
61676;BME280;47574;52.090;5.244;2023-05-08T10:53:47;102132.0;;;23.09;54.69
61676;BME280;47574;52.090;5.244;2023-05-08T10:55:28;102130.0;;;22.94;54.81
61676;BME280;47574;52.090;5.244;2023-05-08T10:58:54;102125.0;;;22.63;55.45
61676;BME280;47574;52.090;5.244;2023-05-08T11:00:33;102130.0;;;23.04;55.05
61676;BME280;47574;52.090;5.244;2023-05-08T11:02:47;102120.0;;;22.74;55.67
61676;BME280;47574;52.090;5.244;2023-05-08T11:04:23;102123.0;;;22.7;55.66
61676;BME280;47574;52.090;5.244;2023-05-08T11:06:00;102121.0;;;22.63;55.87
61676;BME280;47574;52.090;5.244;2023-05-08T11:09:44;102117.0;;;22.84;55.66
61676;BME280;47574;52.090;5.244;2023-05-08T11:11:25;102117.0;;;22.84;55.74
61676;BME280;47574;52.090;5.244;2023-05-08T11:13:05;102128.0;;;23.3;54.72